Time,TemperatureF,DewpointF,PressureIn,WindDirection,WindDirectionDegrees,WindSpeedMPH,WindSpeedGustMPH,Humidity,HourlyPrecipIn,Conditions,Clouds,dailyrainin,SoftwareType,DateUTC
2013-06-06 00:02:00,81.0,70.0,29.83,ENE,61,0.0,0.0,69,0.00,,,0.00,,2013-06-06 05:02:00,
2013-06-06 00:12:00,81.0,70.0,29.83,ENE,61,0.0,0.0,69,0.00,,,0.00,,2013-06-06 05:12:00,
2013-06-06 00:22:00,81.0,70.0,29.83,ENE,61,0.0,0.0,69,0.00,,,0.00,,2013-06-06 05:22:00,
2013-06-06 00:32:00,80.0,70.0,29.83,ENE,72,0.0,2.0,72,0.00,,,0.00,,2013-06-06 05:32:00,
2013-06-06 00:42:00,80.0,70.0,29.83,ENE,72,0.0,2.0,72,0.00,,,0.00,,2013-06-06 05:42:00,
2013-06-06 00:52:00,79.0,70.0,29.83,ENE,72,0.0,0.0,73,0.00,,,0.00,,2013-06-06 05:52:00,
2013-06-06 01:02:00,79.0,70.0,29.83,East,84,0.0,0.0,74,0.00,,,0.00,,2013-06-06 06:02:00,
2013-06-06 01:12:00,79.0,70.0,29.83,ENE,73,0.0,0.0,74,0.00,,,0.00,,2013-06-06 06:12:00,
2013-06-06 01:22:00,79.0,70.0,29.83,ENE,73,0.0,0.0,74,0.00,,,0.00,,2013-06-06 06:22:00,
2013-06-06 01:32:00,79.0,70.0,29.83,ENE,68,0.0,2.0,74,0.00,,,0.00,,2013-06-06 06:32:00,
2013-06-06 01:42:00,79.0,70.0,29.83,ENE,68,0.0,2.0,74,0.00,,,0.00,,2013-06-06 06:42:00,
2013-06-06 01:52:00,79.0,70.0,29.84,ENE,65,0.0,3.0,74,0.00,,,0.00,,2013-06-06 06:52:00,
2013-06-06 02:02:00,79.0,70.0,29.83,ENE,63,2.0,5.0,75,0.00,,,0.00,,2013-06-06 07:02:00,
2013-06-06 02:12:00,79.0,70.0,29.83,ENE,63,2.0,5.0,75,0.00,,,0.00,,2013-06-06 07:12:00,
2013-06-06 02:22:00,78.0,70.0,29.82,East,84,1.0,4.0,76,0.00,,,0.00,,2013-06-06 07:22:00,
2013-06-06 02:32:00,78.0,70.0,29.82,NNE,32,1.0,6.0,77,0.00,,,0.00,,2013-06-06 07:32:00,
2013-06-06 02:42:00,78.0,70.0,29.82,NNE,32,1.0,6.0,77,0.00,,,0.00,,2013-06-06 07:42:00,
2013-06-06 02:52:00,78.0,71.0,29.81,NE,45,0.0,4.0,78,0.00,,,0.00,,2013-06-06 07:52:00,
2013-06-06 03:02:00,78.0,71.0,29.80,NW,307,2.0,5.0,79,0.00,,,0.00,,2013-06-06 08:02:00,
2013-06-06 03:12:00,77.0,70.0,29.80,East,91,3.0,8.0,80,0.00,,,0.00,,2013-06-06 08:12:00,
2013-06-06 03:22:00,77.0,70.0,29.80,East,91,3.0,8.0,80,0.00,,,0.00,,2013-06-06 08:22:00,
2013-06-06 03:32:00,77.0,71.0,29.80,NE,53,0.0,5.0,81,0.00,,,0.00,,2013-06-06 08:32:00,
2013-06-06 03:42:00,77.0,71.0,29.82,ENE,70,1.0,3.0,82,0.00,,,0.00,,2013-06-06 08:42:00,
2013-06-06 03:52:00,77.0,71.0,29.82,ENE,70,1.0,3.0,82,0.00,,,0.00,,2013-06-06 08:52:00,
2013-06-06 04:02:00,77.0,71.0,29.82,East,82,0.0,3.0,82,0.00,,,0.00,,2013-06-06 09:02:00,
2013-06-06 04:12:00,77.0,71.0,29.82,ENE,65,0.0,2.0,83,0.00,,,0.00,,2013-06-06 09:12:00,
2013-06-06 04:22:00,77.0,71.0,29.82,ENE,65,0.0,2.0,83,0.00,,,0.00,,2013-06-06 09:22:00,
2013-06-06 04:33:00,76.0,72.0,29.81,East,84,0.0,1.0,86,0.01,,,0.01,,2013-06-06 09:33:00,
2013-06-06 04:43:00,76.0,72.0,29.81,East,84,0.0,1.0,86,0.01,,,0.01,,2013-06-06 09:43:00,
2013-06-06 04:53:00,75.0,72.0,29.81,SW,217,0.0,3.0,89,0.02,,,0.02,,2013-06-06 09:53:00,
2013-06-06 05:03:00,75.0,72.0,29.83,SW,236,0.0,2.0,90,0.02,,,0.02,,2013-06-06 10:03:00,
2013-06-06 05:12:00,74.0,71.0,29.83,WNW,296,0.0,2.0,90,0.04,,,0.04,,2013-06-06 10:12:00,
2013-06-06 05:22:00,74.0,71.0,29.83,WNW,296,0.0,2.0,90,0.04,,,0.04,,2013-06-06 10:22:00,
2013-06-06 05:33:00,73.0,70.0,29.82,WSW,257,0.0,4.0,90,0.09,,,0.11,,2013-06-06 10:33:00,
2013-06-06 05:42:00,72.0,70.0,29.83,SSE,160,1.0,3.0,92,0.14,,,0.16,,2013-06-06 10:42:00,
2013-06-06 05:52:00,72.0,70.0,29.83,SSE,160,1.0,3.0,92,0.14,,,0.16,,2013-06-06 10:52:00,
2013-06-06 06:02:00,70.0,67.0,29.84,East,90,2.0,12.0,90,0.15,,,0.17,,2013-06-06 11:02:00,
2013-06-06 06:12:00,69.0,67.0,29.82,NW,308,1.0,7.0,92,0.14,,,0.18,,2013-06-06 11:12:00,
2013-06-06 06:22:00,69.0,67.0,29.82,NW,308,1.0,7.0,92,0.14,,,0.18,,2013-06-06 11:22:00,
2013-06-06 06:32:00,68.0,66.0,29.80,WSW,248,0.0,4.0,93,0.05,,,0.18,,2013-06-06 11:32:00,
2013-06-06 06:42:00,68.0,66.0,29.80,WSW,248,0.0,4.0,93,0.05,,,0.18,,2013-06-06 11:42:00,
2013-06-06 06:52:00,68.0,66.0,29.80,ENE,63,0.0,3.0,93,0.02,,,0.18,,2013-06-06 11:52:00,
2013-06-06 07:02:00,68.0,66.0,29.83,SSW,211,0.0,3.0,93,0.01,,,0.18,,2013-06-06 12:02:00,
2013-06-06 07:12:00,69.0,67.0,29.87,SSW,212,0.0,1.0,94,0.00,,,0.18,,2013-06-06 12:12:00,
2013-06-06 07:22:00,69.0,67.0,29.87,SSW,212,0.0,1.0,94,0.00,,,0.18,,2013-06-06 12:22:00,
2013-06-06 07:33:00,69.0,67.0,29.87,NE,54,0.0,3.0,94,0.00,,,0.18,,2013-06-06 12:33:00,
2013-06-06 07:42:00,69.0,67.0,29.87,NE,54,0.0,1.0,94,0.00,,,0.18,,2013-06-06 12:42:00,
2013-06-06 07:52:00,69.0,67.0,29.87,NE,54,0.0,1.0,94,0.00,,,0.18,,2013-06-06 12:52:00,
2013-06-06 08:03:00,68.0,66.0,29.87,NNW,339,0.0,2.0,93,0.00,,,0.18,,2013-06-06 13:03:00,
2013-06-06 08:13:00,68.0,66.0,29.89,North,9,0.0,3.0,93,0.00,,,0.18,,2013-06-06 13:13:00,
2013-06-06 08:22:00,68.0,66.0,29.89,North,9,0.0,3.0,93,0.00,,,0.18,,2013-06-06 13:22:00,
2013-06-06 08:32:00,68.0,66.0,29.89,NE,53,0.0,5.0,93,0.00,,,0.18,,2013-06-06 13:32:00,
2013-06-06 08:43:00,68.0,66.0,29.89,East,79,3.0,8.0,92,0.00,,,0.18,,2013-06-06 13:43:00,
2013-06-06 08:52:00,68.0,66.0,29.89,East,79,3.0,8.0,92,0.00,,,0.18,,2013-06-06 13:52:00,
2013-06-06 09:03:00,68.0,66.0,29.87,NNE,15,0.0,6.0,92,0.00,,,0.18,,2013-06-06 14:03:00,
2013-06-06 09:13:00,68.0,66.0,29.87,NNE,15,0.0,6.0,92,0.00,,,0.18,,2013-06-06 14:13:00,
2013-06-06 09:22:00,68.0,66.0,29.87,NNE,15,0.0,6.0,92,0.00,,,0.18,,2013-06-06 14:22:00,
2013-06-06 09:33:00,68.0,66.0,29.85,North,11,0.0,3.0,92,0.00,,,0.18,,2013-06-06 14:33:00,
2013-06-06 09:43:00,68.0,65.0,29.84,SE,137,1.0,4.0,91,0.00,,,0.18,,2013-06-06 14:43:00,
2013-06-06 09:53:00,68.0,65.0,29.84,SE,137,1.0,4.0,91,0.00,,,0.18,,2013-06-06 14:53:00,
2013-06-06 10:03:00,69.0,66.0,29.85,ENE,59,0.0,2.0,91,0.00,,,0.18,,2013-06-06 15:03:00,
2013-06-06 10:13:00,72.0,68.0,29.85,NE,53,0.0,2.0,86,0.00,,,0.18,,2013-06-06 15:13:00,
2013-06-06 10:23:00,72.0,68.0,29.85,NE,53,0.0,2.0,86,0.00,,,0.18,,2013-06-06 15:23:00,
2013-06-06 10:33:00,73.0,67.0,29.85,NE,51,0.0,4.0,82,0.00,,,0.18,,2013-06-06 15:33:00,
2013-06-06 10:43:00,73.0,67.0,29.85,NE,51,0.0,4.0,82,0.00,,,0.18,,2013-06-06 15:43:00,
2013-06-06 10:52:00,74.0,68.0,29.85,West,259,0.0,4.0,82,0.00,,,0.18,,2013-06-06 15:52:00,
2013-06-06 11:03:00,76.0,69.0,29.85,WNW,294,0.0,5.0,78,0.00,,,0.18,,2013-06-06 16:03:00,
2013-06-06 11:12:00,76.0,67.0,29.85,NE,34,0.0,4.0,74,0.00,,,0.18,,2013-06-06 16:12:00,
2013-06-06 11:23:00,76.0,67.0,29.85,NE,34,0.0,4.0,74,0.00,,,0.18,,2013-06-06 16:23:00,
2013-06-06 11:33:00,77.0,68.0,29.86,East,96,0.0,3.0,73,0.00,,,0.18,,2013-06-06 16:33:00,
2013-06-06 11:52:00,77.0,68.0,29.86,NW,305,0.0,2.0,74,0.00,,,0.18,,2013-06-06 16:52:00,
2013-06-06 12:03:00,76.0,67.0,29.86,South,188,0.0,1.0,75,0.00,,,0.18,,2013-06-06 17:03:00,
2013-06-06 12:13:00,75.0,67.0,29.88,SW,232,0.0,1.0,76,0.00,,,0.18,,2013-06-06 17:13:00,
2013-06-06 12:22:00,75.0,67.0,29.88,SW,232,0.0,1.0,76,0.00,,,0.18,,2013-06-06 17:22:00,
2013-06-06 12:33:00,74.0,66.0,29.89,NE,44,0.0,2.0,77,0.00,,,0.18,,2013-06-06 17:33:00,
2013-06-06 12:43:00,74.0,66.0,29.89,NE,44,0.0,2.0,77,0.00,,,0.18,,2013-06-06 17:43:00,
2013-06-06 12:52:00,73.0,66.0,29.91,NE,53,0.0,1.0,80,0.00,,,0.18,,2013-06-06 17:52:00,
2013-06-06 13:03:00,73.0,66.0,29.91,NE,53,0.0,1.0,80,0.00,,,0.18,,2013-06-06 18:03:00,
2013-06-06 13:13:00,73.0,66.0,29.91,NE,53,0.0,1.0,80,0.00,,,0.18,,2013-06-06 18:13:00,
2013-06-06 13:23:00,72.0,68.0,29.91,South,179,1.0,5.0,86,0.03,,,0.21,,2013-06-06 18:23:00,
2013-06-06 13:33:00,70.0,67.0,29.91,NNW,333,0.0,4.0,89,0.05,,,0.23,,2013-06-06 18:33:00,
2013-06-06 13:43:00,70.0,67.0,29.91,NNW,333,0.0,4.0,89,0.05,,,0.23,,2013-06-06 18:43:00,
2013-06-06 13:53:00,69.0,67.0,29.91,SW,233,0.0,5.0,92,0.07,,,0.25,,2013-06-06 18:53:00,
2013-06-06 14:03:00,69.0,67.0,29.91,West,272,0.0,4.0,92,0.13,,,0.31,,2013-06-06 19:03:00,
2013-06-06 14:13:00,69.0,67.0,29.91,West,259,1.0,5.0,92,0.16,,,0.37,,2013-06-06 19:13:00,
2013-06-06 14:23:00,69.0,67.0,29.91,West,259,1.0,5.0,92,0.16,,,0.37,,2013-06-06 19:23:00,
2013-06-06 14:33:00,69.0,67.0,29.91,NW,320,1.0,4.0,92,0.18,,,0.41,,2013-06-06 19:33:00,
2013-06-06 14:43:00,69.0,67.0,29.91,NW,320,1.0,4.0,92,0.18,,,0.41,,2013-06-06 19:43:00,
2013-06-06 14:52:00,70.0,68.0,29.91,NE,49,0.0,2.0,92,0.16,,,0.41,,2013-06-06 19:52:00,
2013-06-06 15:03:00,70.0,68.0,29.91,NNW,348,0.0,2.0,92,0.10,,,0.41,,2013-06-06 20:03:00,
2013-06-06 15:13:00,71.0,68.0,29.91,WSW,255,0.0,2.0,91,0.03,,,0.41,,2013-06-06 20:13:00,
2013-06-06 15:23:00,71.0,68.0,29.91,WSW,255,0.0,2.0,91,0.03,,,0.41,,2013-06-06 20:23:00,
2013-06-06 15:33:00,71.0,68.0,29.91,WSW,255,0.0,2.0,91,0.03,,,0.41,,2013-06-06 20:33:00,
2013-06-06 15:42:00,71.0,68.0,29.91,WSW,255,0.0,2.0,91,0.03,,,0.41,,2013-06-06 20:42:00,
2013-06-06 15:52:00,71.0,68.0,29.91,WSW,255,0.0,2.0,91,0.03,,,0.41,,2013-06-06 20:52:00,
2013-06-06 16:03:00,72.0,67.0,29.89,North,360,0.0,1.0,85,0.00,,,0.41,,2013-06-06 21:03:00,
2013-06-06 16:13:00,72.0,67.0,29.89,North,360,0.0,1.0,85,0.00,,,0.41,,2013-06-06 21:13:00,
2013-06-06 16:23:00,72.0,67.0,29.89,North,360,0.0,1.0,85,0.00,,,0.41,,2013-06-06 21:23:00,
2013-06-06 16:33:00,74.0,68.0,29.88,North,8,0.0,3.0,83,0.00,,,0.41,,2013-06-06 21:33:00,
2013-06-06 16:44:00,74.0,68.0,29.88,North,8,0.0,3.0,83,0.00,,,0.41,,2013-06-06 21:44:00,
2013-06-06 16:53:00,74.0,68.0,29.88,ENE,60,0.0,5.0,82,0.00,,,0.41,,2013-06-06 21:53:00,
2013-06-06 17:03:00,75.0,68.0,29.88,NW,315,0.0,4.0,80,0.00,,,0.41,,2013-06-06 22:03:00,
2013-06-06 17:13:00,77.0,69.0,29.87,East,95,0.0,3.0,77,0.00,,,0.41,,2013-06-06 22:13:00,
2013-06-06 17:23:00,77.0,69.0,29.87,East,95,0.0,3.0,77,0.00,,,0.41,,2013-06-06 22:23:00,
2013-06-06 17:33:00,77.0,68.0,29.87,SW,226,0.0,3.0,74,0.00,,,0.41,,2013-06-06 22:33:00,
2013-06-06 17:43:00,77.0,68.0,29.87,SW,226,0.0,3.0,74,0.00,,,0.41,,2013-06-06 22:43:00,
2013-06-06 17:52:00,78.0,68.0,29.87,NE,36,0.0,3.0,72,0.00,,,0.41,,2013-06-06 22:52:00,
2013-06-06 18:02:00,77.0,67.0,29.87,WSW,240,1.0,6.0,71,0.00,,,0.41,,2013-06-06 23:02:00,
2013-06-06 18:12:00,78.0,67.0,29.88,WNW,293,1.0,5.0,69,0.00,,,0.41,,2013-06-06 23:12:00,
2013-06-06 18:22:00,78.0,67.0,29.88,WNW,293,1.0,5.0,69,0.00,,,0.41,,2013-06-06 23:22:00,
2013-06-06 18:33:00,78.0,67.0,29.87,WNW,292,1.0,5.0,69,0.00,,,0.41,,2013-06-06 23:33:00,
2013-06-06 18:43:00,78.0,67.0,29.87,WNW,292,1.0,5.0,69,0.00,,,0.41,,2013-06-06 23:43:00,
2013-06-06 18:52:00,76.0,66.0,29.87,NNE,32,0.0,4.0,72,0.00,,,0.41,,2013-06-06 23:52:00,
2013-06-06 19:02:00,76.0,66.0,29.86,WNW,290,0.0,4.0,71,0.00,,,0.41,,2013-06-07 00:02:00,
2013-06-06 19:12:00,76.0,66.0,29.86,WNW,290,0.0,4.0,71,0.00,,,0.41,,2013-06-07 00:12:00,
2013-06-06 19:22:00,76.0,66.0,29.87,West,278,0.0,4.0,72,0.00,,,0.41,,2013-06-07 00:22:00,
2013-06-06 19:32:00,75.0,66.0,29.87,North,11,0.0,5.0,73,0.00,,,0.41,,2013-06-07 00:32:00,
2013-06-06 19:42:00,75.0,66.0,29.87,North,11,0.0,5.0,73,0.00,,,0.41,,2013-06-07 00:42:00,
2013-06-06 19:52:00,75.0,66.0,29.87,SE,127,1.0,5.0,73,0.00,,,0.41,,2013-06-07 00:52:00,
2013-06-06 20:02:00,74.0,65.0,29.88,NNW,333,0.0,3.0,74,0.00,,,0.41,,2013-06-07 01:02:00,
2013-06-06 20:12:00,74.0,66.0,29.88,ESE,123,0.0,2.0,75,0.00,,,0.41,,2013-06-07 01:12:00,
2013-06-06 20:22:00,74.0,66.0,29.88,ESE,123,0.0,2.0,75,0.00,,,0.41,,2013-06-07 01:22:00,
2013-06-06 20:32:00,73.0,65.0,29.89,NW,316,0.0,4.0,76,0.00,,,0.41,,2013-06-07 01:32:00,
2013-06-06 20:42:00,73.0,65.0,29.89,NW,316,0.0,4.0,76,0.00,,,0.41,,2013-06-07 01:42:00,
2013-06-06 20:52:00,73.0,65.0,29.89,SW,222,0.0,2.0,76,0.00,,,0.41,,2013-06-07 01:52:00,
2013-06-06 21:02:00,72.0,65.0,29.90,NNW,345,0.0,2.0,78,0.00,,,0.41,,2013-06-07 02:02:00,
2013-06-06 21:12:00,72.0,65.0,29.90,NNW,345,0.0,2.0,78,0.00,,,0.41,,2013-06-07 02:12:00,
2013-06-06 21:22:00,72.0,65.0,29.90,NNE,29,0.0,1.0,79,0.00,,,0.41,,2013-06-07 02:22:00,
2013-06-06 21:32:00,71.0,65.0,29.91,NNW,340,0.0,3.0,81,0.00,,,0.41,,2013-06-07 02:32:00,
2013-06-06 21:42:00,71.0,65.0,29.91,NNW,340,0.0,3.0,81,0.00,,,0.41,,2013-06-07 02:42:00,
2013-06-06 21:52:00,72.0,65.0,29.91,NE,44,0.0,1.0,80,0.00,,,0.41,,2013-06-07 02:52:00,
2013-06-06 22:02:00,72.0,65.0,29.91,NNE,15,0.0,3.0,79,0.00,,,0.41,,2013-06-07 03:02:00,
2013-06-06 22:12:00,72.0,65.0,29.92,NNE,27,0.0,3.0,80,0.00,,,0.41,,2013-06-07 03:12:00,
2013-06-06 22:22:00,72.0,65.0,29.92,NNE,27,0.0,3.0,80,0.00,,,0.41,,2013-06-07 03:22:00,
2013-06-06 22:33:00,71.0,65.0,29.92,North,10,0.0,1.0,82,0.00,,,0.41,,2013-06-07 03:33:00,
2013-06-06 22:43:00,71.0,65.0,29.92,North,10,0.0,1.0,82,0.00,,,0.41,,2013-06-07 03:43:00,
2013-06-06 22:53:00,70.0,65.0,29.93,NW,321,0.0,1.0,84,0.00,,,0.41,,2013-06-07 03:53:00,
2013-06-06 23:03:00,70.0,65.0,29.93,NW,321,0.0,1.0,84,0.00,,,0.41,,2013-06-07 04:03:00,
2013-06-06 23:12:00,70.0,65.0,29.94,WNW,286,0.0,1.0,85,0.00,,,0.41,,2013-06-07 04:12:00,
2013-06-06 23:22:00,70.0,65.0,29.94,WNW,286,0.0,1.0,85,0.00,,,0.41,,2013-06-07 04:22:00,
2013-06-06 23:33:00,69.0,65.0,29.94,WNW,288,0.0,0.0,86,0.00,,,0.41,,2013-06-07 04:33:00,
2013-06-06 23:42:00,69.0,65.0,29.94,WNW,288,0.0,0.0,86,0.00,,,0.41,,2013-06-07 04:42:00,
2013-06-06 23:53:00,69.0,65.0,29.94,WNW,288,0.0,0.0,87,0.00,,,0.41,,2013-06-07 04:53:00,